sensor_id;sensor_type;location;lat;lon;timestamp;pressure;altitude;pressure_sealevel;temperature;humidity
38400;BME280;24180;42.676;23.320;2023-02-28T00:00:28;95155.41;;;6.05;100.00
38400;BME280;24180;42.676;23.320;2023-02-28T00:02:53;95130.63;;;5.79;100.00
38400;BME280;24180;42.676;23.320;2023-02-28T00:05:21;95146.25;;;6.01;100.00
38400;BME280;24180;42.676;23.320;2023-02-28T00:07:47;95152.81;;;6.05;100.00
38400;BME280;24180;42.676;23.320;2023-02-28T00:10:16;95115.75;;;5.71;100.00
38400;BME280;24180;42.676;23.320;2023-02-28T00:12:49;95123.84;;;5.90;100.00
38400;BME280;24180;42.676;23.320;2023-02-28T00:15:15;95132.16;;;5.94;100.00
38400;BME280;24180;42.676;23.320;2023-02-28T00:17:41;95158.28;;;6.00;100.00
38400;BME280;24180;42.676;23.320;2023-02-28T00:20:07;95157.59;;;6.22;100.00
38400;BME280;24180;42.676;23.320;2023-02-28T00:22:34;95169.94;;;6.30;100.00
38400;BME280;24180;42.676;23.320;2023-02-28T00:24:59;95179.78;;;6.36;100.00
38400;BME280;24180;42.676;23.320;2023-02-28T00:27:25;95174.31;;;6.40;100.00
38400;BME280;24180;42.676;23.320;2023-02-28T00:29:50;95163.53;;;6.35;100.00
38400;BME280;24180;42.676;23.320;2023-02-28T00:32:16;95146.25;;;6.37;100.00
38400;BME280;24180;42.676;23.320;2023-02-28T00:34:41;95167.09;;;6.45;100.00
38400;BME280;24180;42.676;23.320;2023-02-28T00:37:09;95172.91;;;6.60;100.00
38400;BME280;24180;42.676;23.320;2023-02-28T00:39:35;95170.34;;;6.60;100.00
38400;BME280;24180;42.676;23.320;2023-02-28T00:42:02;95185.50;;;6.52;100.00
38400;BME280;24180;42.676;23.320;2023-02-28T00:44:28;95180.03;;;6.56;100.00
38400;BME280;24180;42.676;23.320;2023-02-28T00:46:54;95165.50;;;6.55;100.00
38400;BME280;24180;42.676;23.320;2023-02-28T00:49:21;95165.97;;;6.49;100.00
38400;BME280;24180;42.676;23.320;2023-02-28T00:51:46;95147.41;;;6.33;100.00
38400;BME280;24180;42.676;23.320;2023-02-28T00:54:12;95145.38;;;6.26;100.00
38400;BME280;24180;42.676;23.320;2023-02-28T00:56:37;95165.59;;;6.30;100.00
38400;BME280;24180;42.676;23.320;2023-02-28T00:59:02;95146.31;;;6.12;100.00
38400;BME280;24180;42.676;23.320;2023-02-28T01:01:28;95158.66;;;6.20;100.00
38400;BME280;24180;42.676;23.320;2023-02-28T01:03:53;95153.84;;;6.02;100.00
38400;BME280;24180;42.676;23.320;2023-02-28T01:06:19;95132.81;;;5.97;100.00
38400;BME280;24180;42.676;23.320;2023-02-28T01:08:44;95163.50;;;6.11;100.00
38400;BME280;24180;42.676;23.320;2023-02-28T01:11:11;95149.50;;;6.16;100.00
38400;BME280;24180;42.676;23.320;2023-02-28T01:13:37;95152.69;;;6.19;100.00
38400;BME280;24180;42.676;23.320;2023-02-28T01:16:02;95160.16;;;6.22;100.00
38400;BME280;24180;42.676;23.320;2023-02-28T01:18:28;95135.13;;;6.13;100.00
38400;BME280;24180;42.676;23.320;2023-02-28T01:20:54;95128.59;;;5.96;100.00
38400;BME280;24180;42.676;23.320;2023-02-28T01:23:21;95151.09;;;6.05;100.00
38400;BME280;24180;42.676;23.320;2023-02-28T01:25:49;95151.69;;;6.09;100.00
38400;BME280;24180;42.676;23.320;2023-02-28T01:28:15;95123.97;;;5.89;100.00
38400;BME280;24180;42.676;23.320;2023-02-28T01:30:40;95152.84;;;5.92;100.00
38400;BME280;24180;42.676;23.320;2023-02-28T01:33:05;95137.22;;;5.95;100.00
38400;BME280;24180;42.676;23.320;2023-02-28T01:35:35;95146.03;;;6.04;100.00
38400;BME280;24180;42.676;23.320;2023-02-28T01:38:01;95158.09;;;5.91;100.00
38400;BME280;24180;42.676;23.320;2023-02-28T01:40:26;95132.78;;;5.85;100.00
38400;BME280;24180;42.676;23.320;2023-02-28T01:42:52;95155.41;;;6.05;100.00
38400;BME280;24180;42.676;23.320;2023-02-28T01:45:25;95131.75;;;6.00;100.00
38400;BME280;24180;42.676;23.320;2023-02-28T01:47:55;95147.47;;;6.08;100.00
38400;BME280;24180;42.676;23.320;2023-02-28T01:50:26;95142.44;;;5.94;100.00
38400;BME280;24180;42.676;23.320;2023-02-28T01:52:55;95164.66;;;5.95;100.00
38400;BME280;24180;42.676;23.320;2023-02-28T01:55:23;95155.91;;;5.85;100.00
38400;BME280;24180;42.676;23.320;2023-02-28T01:57:52;95136.22;;;5.73;100.00
38400;BME280;24180;42.676;23.320;2023-02-28T02:00:22;95135.28;;;5.61;100.00
38400;BME280;24180;42.676;23.320;2023-02-28T02:02:51;95148.44;;;5.82;100.00
38400;BME280;24180;42.676;23.320;2023-02-28T02:05:29;95140.72;;;5.82;100.00
38400;BME280;24180;42.676;23.320;2023-02-28T02:08:01;95093.47;;;5.46;100.00
38400;BME280;24180;42.676;23.320;2023-02-28T02:10:57;95150.69;;;5.86;100.00
38400;BME280;24180;42.676;23.320;2023-02-28T02:22:45;95143.28;;;5.94;100.00
38400;BME280;24180;42.676;23.320;2023-02-28T02:27:26;95148.00;;;6.00;100.00
38400;BME280;24180;42.676;23.320;2023-02-28T02:32:25;95154.38;;;5.95;100.00
38400;BME280;24180;42.676;23.320;2023-02-28T02:34:58;95155.41;;;5.92;100.00
38400;BME280;24180;42.676;23.320;2023-02-28T02:37:39;95156.00;;;5.83;100.00
38400;BME280;24180;42.676;23.320;2023-02-28T02:42:39;95163.03;;;5.81;100.00
38400;BME280;24180;42.676;23.320;2023-02-28T02:47:45;95151.53;;;5.49;100.00
38400;BME280;24180;42.676;23.320;2023-02-28T02:50:33;95119.97;;;5.34;100.00
38400;BME280;24180;42.676;23.320;2023-02-28T02:53:01;95137.56;;;5.53;100.00
38400;BME280;24180;42.676;23.320;2023-02-28T02:55:29;95151.63;;;5.60;100.00
38400;BME280;24180;42.676;23.320;2023-02-28T02:58:01;95143.41;;;5.55;100.00
38400;BME280;24180;42.676;23.320;2023-02-28T03:00:50;95166.81;;;5.63;100.00
38400;BME280;24180;42.676;23.320;2023-02-28T03:03:19;95178.66;;;5.65;100.00
38400;BME280;24180;42.676;23.320;2023-02-28T03:05:57;95173.72;;;5.62;100.00
38400;BME280;24180;42.676;23.320;2023-02-28T03:08:24;95160.38;;;5.45;100.00
38400;BME280;24180;42.676;23.320;2023-02-28T03:10:51;95158.50;;;5.59;100.00
38400;BME280;24180;42.676;23.320;2023-02-28T03:26:26;95188.09;;;5.78;100.00
38400;BME280;24180;42.676;23.320;2023-02-28T03:29:02;95206.69;;;5.94;100.00
38400;BME280;24180;42.676;23.320;2023-02-28T03:31:40;95202.69;;;5.90;100.00
38400;BME280;24180;42.676;23.320;2023-02-28T03:34:12;95192.00;;;5.83;100.00
38400;BME280;24180;42.676;23.320;2023-02-28T03:36:50;95215.44;;;6.04;100.00
38400;BME280;24180;42.676;23.320;2023-02-28T03:39:22;95212.78;;;6.05;100.00
38400;BME280;24180;42.676;23.320;2023-02-28T03:42:02;95193.66;;;5.97;100.00
38400;BME280;24180;42.676;23.320;2023-02-28T03:44:33;95210.28;;;6.17;100.00
38400;BME280;24180;42.676;23.320;2023-02-28T03:47:10;95212.03;;;6.16;100.00
38400;BME280;24180;42.676;23.320;2023-02-28T03:52:34;95198.19;;;5.93;100.00
38400;BME280;24180;42.676;23.320;2023-02-28T03:55:04;95221.94;;;6.09;100.00
38400;BME280;24180;42.676;23.320;2023-02-28T03:57:41;95219.97;;;6.00;100.00
38400;BME280;24180;42.676;23.320;2023-02-28T04:00:19;95226.63;;;6.16;100.00
38400;BME280;24180;42.676;23.320;2023-02-28T04:02:45;95191.19;;;5.95;100.00
38400;BME280;24180;42.676;23.320;2023-02-28T04:05:10;95221.81;;;6.11;100.00
38400;BME280;24180;42.676;23.320;2023-02-28T04:07:36;95219.53;;;6.06;100.00
38400;BME280;24180;42.676;23.320;2023-02-28T04:10:03;95217.72;;;6.08;100.00
38400;BME280;24180;42.676;23.320;2023-02-28T04:12:29;95224.97;;;6.15;100.00
38400;BME280;24180;42.676;23.320;2023-02-28T04:14:54;95207.84;;;5.90;100.00
38400;BME280;24180;42.676;23.320;2023-02-28T04:17:20;95219.34;;;6.09;100.00
38400;BME280;24180;42.676;23.320;2023-02-28T04:19:45;95183.56;;;5.94;100.00
38400;BME280;24180;42.676;23.320;2023-02-28T04:22:11;95189.06;;;5.89;100.00
38400;BME280;24180;42.676;23.320;2023-02-28T04:24:36;95199.50;;;5.99;100.00
38400;BME280;24180;42.676;23.320;2023-02-28T04:27:02;95217.72;;;6.08;100.00
38400;BME280;24180;42.676;23.320;2023-02-28T04:29:30;95220.59;;;6.04;100.00
38400;BME280;24180;42.676;23.320;2023-02-28T04:31:56;95202.09;;;5.99;100.00
38400;BME280;24180;42.676;23.320;2023-02-28T04:34:29;95198.91;;;5.95;100.00
38400;BME280;24180;42.676;23.320;2023-02-28T04:36:56;95216.19;;;5.93;100.00
38400;BME280;24180;42.676;23.320;2023-02-28T04:39:22;95160.88;;;5.62;100.00
38400;BME280;24180;42.676;23.320;2023-02-28T04:41:48;95204.97;;;5.94;100.00
38400;BME280;24180;42.676;23.320;2023-02-28T04:44:14;95234.28;;;6.04;100.00
38400;BME280;24180;42.676;23.320;2023-02-28T04:46:40;95209.69;;;5.75;100.00
38400;BME280;24180;42.676;23.320;2023-02-28T04:49:06;95241.75;;;5.82;100.00
38400;BME280;24180;42.676;23.320;2023-02-28T04:51:31;95242.78;;;5.80;100.00
38400;BME280;24180;42.676;23.320;2023-02-28T04:53:56;95240.72;;;5.85;100.00
38400;BME280;24180;42.676;23.320;2023-02-28T04:56:22;95215.44;;;5.79;100.00
38400;BME280;24180;42.676;23.320;2023-02-28T04:58:48;95243.81;;;5.90;100.00
38400;BME280;24180;42.676;23.320;2023-02-28T05:01:30;95226.13;;;5.85;100.00
38400;BME280;24180;42.676;23.320;2023-02-28T05:03:58;95252.56;;;6.00;100.00
38400;BME280;24180;42.676;23.320;2023-02-28T05:06:26;95225.31;;;5.85;100.00
38400;BME280;24180;42.676;23.320;2023-02-28T05:08:52;95242.81;;;5.92;100.00
38400;BME280;24180;42.676;23.320;2023-02-28T05:13:44;95243.03;;;5.89;100.00
38400;BME280;24180;42.676;23.320;2023-02-28T05:16:10;95217.59;;;5.72;100.00
38400;BME280;24180;42.676;23.320;2023-02-28T05:18:36;95252.06;;;5.95;100.00
38400;BME280;24180;42.676;23.320;2023-02-28T05:21:01;95224.47;;;5.84;100.00
38400;BME280;24180;42.676;23.320;2023-02-28T05:23:27;95256.97;;;5.98;100.00
38400;BME280;24180;42.676;23.320;2023-02-28T05:25:53;95264.19;;;6.05;100.00
38400;BME280;24180;42.676;23.320;2023-02-28T05:28:19;95259.75;;;6.07;100.00
38400;BME280;24180;42.676;23.320;2023-02-28T05:30:45;95268.09;;;6.11;100.00
38400;BME280;24180;42.676;23.320;2023-02-28T05:33:11;95250.41;;;6.06;100.00
38400;BME280;24180;42.676;23.320;2023-02-28T05:35:38;95256.56;;;6.04;100.00
38400;BME280;24180;42.676;23.320;2023-02-28T05:38:04;95272.38;;;6.23;100.00
38400;BME280;24180;42.676;23.320;2023-02-28T05:40:29;95272.19;;;6.26;100.00
38400;BME280;24180;42.676;23.320;2023-02-28T05:42:55;95274.25;;;6.21;100.00
38400;BME280;24180;42.676;23.320;2023-02-28T05:45:20;95245.88;;;6.10;100.00
38400;BME280;24180;42.676;23.320;2023-02-28T05:47:45;95270.75;;;6.22;100.00
38400;BME280;24180;42.676;23.320;2023-02-28T05:50:11;95268.28;;;6.21;100.00
38400;BME280;24180;42.676;23.320;2023-02-28T05:52:37;95282.28;;;6.17;100.00
38400;BME280;24180;42.676;23.320;2023-02-28T05:55:03;95296.38;;;6.24;100.00
38400;BME280;24180;42.676;23.320;2023-02-28T05:57:28;95291.44;;;6.33;100.00
38400;BME280;24180;42.676;23.320;2023-02-28T05:59:53;95290.69;;;6.31;100.00
38400;BME280;24180;42.676;23.320;2023-02-28T06:02:19;95286.59;;;6.41;100.00
38400;BME280;24180;42.676;23.320;2023-02-28T06:04:45;95267.75;;;6.41;100.00
38400;BME280;24180;42.676;23.320;2023-02-28T06:07:11;95252.19;;;6.42;100.00
38400;BME280;24180;42.676;23.320;2023-02-28T06:09:37;95283.00;;;6.68;100.00
38400;BME280;24180;42.676;23.320;2023-02-28T06:12:04;95288.16;;;6.68;100.00
38400;BME280;24180;42.676;23.320;2023-02-28T06:14:33;95259.47;;;6.61;100.00
38400;BME280;24180;42.676;23.320;2023-02-28T06:17:00;95225.53;;;6.43;100.00
38400;BME280;24180;42.676;23.320;2023-02-28T06:19:25;95277.00;;;6.80;100.00
38400;BME280;24180;42.676;23.320;2023-02-28T06:21:52;95260.75;;;6.79;100.00
38400;BME280;24180;42.676;23.320;2023-02-28T06:24:22;95276.97;;;6.92;100.00
38400;BME280;24180;42.676;23.320;2023-02-28T06:26:48;95265.47;;;6.85;100.00
38400;BME280;24180;42.676;23.320;2023-02-28T06:29:13;95282.50;;;6.99;100.00
38400;BME280;24180;42.676;23.320;2023-02-28T06:31:42;95277.34;;;6.99;100.00
38400;BME280;24180;42.676;23.320;2023-02-28T06:34:09;95296.09;;;7.01;100.00
38400;BME280;24180;42.676;23.320;2023-02-28T06:36:38;95306.63;;;6.98;100.00
38400;BME280;24180;42.676;23.320;2023-02-28T06:39:03;95289.06;;;6.79;100.00
38400;BME280;24180;42.676;23.320;2023-02-28T06:41:29;95306.63;;;6.98;100.00
38400;BME280;24180;42.676;23.320;2023-02-28T06:43:55;95289.63;;;6.95;100.00
38400;BME280;24180;42.676;23.320;2023-02-28T06:46:21;95319.59;;;6.96;100.00
38400;BME280;24180;42.676;23.320;2023-02-28T06:48:46;95310.63;;;7.02;100.00
38400;BME280;24180;42.676;23.320;2023-02-28T06:51:17;95314.81;;;7.03;100.00
38400;BME280;24180;42.676;23.320;2023-02-28T06:53:45;95312.25;;;7.03;100.00
38400;BME280;24180;42.676;23.320;2023-02-28T06:56:13;95299.50;;;7.01;100.00
38400;BME280;24180;42.676;23.320;2023-02-28T06:58:39;95299.19;;;7.06;100.00
38400;BME280;24180;42.676;23.320;2023-02-28T07:01:05;95315.91;;;7.12;100.00
38400;BME280;24180;42.676;23.320;2023-02-28T07:03:31;95323.09;;;7.19;100.00
38400;BME280;24180;42.676;23.320;2023-02-28T07:05:56;95318.72;;;7.09;100.00
38400;BME280;24180;42.676;23.320;2023-02-28T07:08:23;95289.53;;;6.97;100.00
38400;BME280;24180;42.676;23.320;2023-02-28T07:10:54;95291.53;;;7.04;100.00
38400;BME280;24180;42.676;23.320;2023-02-28T07:13:21;95303.59;;;7.04;100.00
38400;BME280;24180;42.676;23.320;2023-02-28T07:16:13;95323.97;;;7.07;100.00
38400;BME280;24180;42.676;23.320;2023-02-28T07:18:39;95321.53;;;7.05;100.00
38400;BME280;24180;42.676;23.320;2023-02-28T07:21:07;95313.38;;;6.99;100.00
38400;BME280;24180;42.676;23.320;2023-02-28T07:23:33;95320.91;;;7.02;100.00
38400;BME280;24180;42.676;23.320;2023-02-28T07:25:58;95298.25;;;6.94;100.00
38400;BME280;24180;42.676;23.320;2023-02-28T07:28:24;95322.84;;;6.98;100.00
38400;BME280;24180;42.676;23.320;2023-02-28T07:30:50;95304.38;;;6.93;100.00
38400;BME280;24180;42.676;23.320;2023-02-28T07:33:16;95329.03;;;7.32;100.00
38400;BME280;24180;42.676;23.320;2023-02-28T07:35:41;95266.09;;;7.24;100.00
38400;BME280;24180;42.676;23.320;2023-02-28T07:38:07;95319.78;;;7.65;100.00
38400;BME280;24180;42.676;23.320;2023-02-28T07:40:34;95305.38;;;7.62;100.00
38400;BME280;24180;42.676;23.320;2023-02-28T07:43:00;95328.47;;;7.75;100.00
38400;BME280;24180;42.676;23.320;2023-02-28T07:45:27;95308.88;;;7.61;100.00
38400;BME280;24180;42.676;23.320;2023-02-28T07:47:54;95338.59;;;7.78;100.00
38400;BME280;24180;42.676;23.320;2023-02-28T07:50:20;95338.53;;;7.67;100.00
38400;BME280;24180;42.676;23.320;2023-02-28T07:52:45;95289.94;;;7.38;100.00
38400;BME280;24180;42.676;23.320;2023-02-28T07:55:11;95310.13;;;7.44;100.00
38400;BME280;24180;42.676;23.320;2023-02-28T07:57:37;95341.41;;;7.51;100.00
38400;BME280;24180;42.676;23.320;2023-02-28T08:00:04;95307.00;;;7.28;100.00
38400;BME280;24180;42.676;23.320;2023-02-28T08:02:30;95332.97;;;7.49;100.00
38400;BME280;24180;42.676;23.320;2023-02-28T08:04:55;95303.16;;;7.34;100.00
38400;BME280;24180;42.676;23.320;2023-02-28T08:07:21;95290.00;;;7.49;100.00
38400;BME280;24180;42.676;23.320;2023-02-28T08:09:46;95319.28;;;7.94;100.00
38400;BME280;24180;42.676;23.320;2023-02-28T08:12:12;95322.94;;;8.03;100.00
38400;BME280;24180;42.676;23.320;2023-02-28T08:14:38;95330.88;;;8.35;100.00
38400;BME280;24180;42.676;23.320;2023-02-28T08:17:04;95301.66;;;8.68;100.00
38400;BME280;24180;42.676;23.320;2023-02-28T08:19:30;95324.66;;;8.93;100.00
38400;BME280;24180;42.676;23.320;2023-02-28T08:21:56;95304.25;;;8.90;100.00
38400;BME280;24180;42.676;23.320;2023-02-28T08:24:22;95320.78;;;8.99;100.00
38400;BME280;24180;42.676;23.320;2023-02-28T08:26:47;95329.75;;;9.15;100.00
38400;BME280;24180;42.676;23.320;2023-02-28T08:29:13;95340.34;;;9.12;100.00
38400;BME280;24180;42.676;23.320;2023-02-28T08:31:38;95314.56;;;8.90;100.00
38400;BME280;24180;42.676;23.320;2023-02-28T08:34:08;95319.94;;;8.87;100.00
38400;BME280;24180;42.676;23.320;2023-02-28T08:36:34;95333.34;;;8.92;100.00
38400;BME280;24180;42.676;23.320;2023-02-28T08:38:59;95314.00;;;8.86;100.00
38400;BME280;24180;42.676;23.320;2023-02-28T08:41:25;95331.31;;;9.07;100.00
38400;BME280;24180;42.676;23.320;2023-02-28T08:43:51;95315.41;;;8.90;100.00
38400;BME280;24180;42.676;23.320;2023-02-28T08:46:16;95321.13;;;8.94;100.00
38400;BME280;24180;42.676;23.320;2023-02-28T08:48:42;95320.38;;;9.03;100.00
38400;BME280;24180;42.676;23.320;2023-02-28T08:51:14;95345.25;;;9.15;100.00
38400;BME280;24180;42.676;23.320;2023-02-28T08:53:41;95340.09;;;9.15;100.00
38400;BME280;24180;42.676;23.320;2023-02-28T08:56:09;95344.56;;;9.24;100.00
38400;BME280;24180;42.676;23.320;2023-02-28T08:58:36;95323.31;;;9.21;100.00
38400;BME280;24180;42.676;23.320;2023-02-28T09:01:19;95325.28;;;9.28;100.00
38400;BME280;24180;42.676;23.320;2023-02-28T09:03:45;95332.53;;;9.46;100.00
38400;BME280;24180;42.676;23.320;2023-02-28T09:06:12;95347.47;;;9.42;100.00
38400;BME280;24180;42.676;23.320;2023-02-28T09:08:39;95324.44;;;9.28;100.00
38400;BME280;24180;42.676;23.320;2023-02-28T09:11:05;95310.81;;;8.94;100.00
38400;BME280;24180;42.676;23.320;2023-02-28T09:13:31;95318.56;;;8.94;100.00
38400;BME280;24180;42.676;23.320;2023-02-28T09:15:59;95312.91;;;9.00;100.00
38400;BME280;24180;42.676;23.320;2023-02-28T09:18:25;95339.53;;;9.12;100.00
38400;BME280;24180;42.676;23.320;2023-02-28T09:20:51;95314.81;;;8.76;100.00
38400;BME280;24180;42.676;23.320;2023-02-28T09:23:17;95317.53;;;8.74;100.00
38400;BME280;24180;42.676;23.320;2023-02-28T09:25:50;95336.88;;;8.69;100.00
38400;BME280;24180;42.676;23.320;2023-02-28T09:28:16;95313.28;;;8.51;100.00
38400;BME280;24180;42.676;23.320;2023-02-28T09:30:44;95328.19;;;8.81;100.00
38400;BME280;24180;42.676;23.320;2023-02-28T09:33:10;95310.34;;;8.78;100.00
38400;BME280;24180;42.676;23.320;2023-02-28T09:35:36;95297.88;;;8.83;100.00
38400;BME280;24180;42.676;23.320;2023-02-28T09:38:03;95335.75;;;9.16;100.00
38400;BME280;24180;42.676;23.320;2023-02-28T09:40:28;95327.25;;;8.82;100.00
38400;BME280;24180;42.676;23.320;2023-02-28T09:42:55;95300.94;;;8.88;100.00
38400;BME280;24180;42.676;23.320;2023-02-28T09:45:40;95330.13;;;9.22;100.00
38400;BME280;24180;42.676;23.320;2023-02-28T09:48:15;95300.66;;;9.13;100.00
38400;BME280;24180;42.676;23.320;2023-02-28T09:50:48;95327.50;;;9.33;100.00
38400;BME280;24180;42.676;23.320;2023-02-28T09:53:19;95313.06;;;9.30;100.00
38400;BME280;24180;42.676;23.320;2023-02-28T09:55:51;95316.44;;;9.42;100.00
38400;BME280;24180;42.676;23.320;2023-02-28T09:58:30;95318.41;;;9.50;100.00
38400;BME280;24180;42.676;23.320;2023-02-28T10:01:18;95327.50;;;9.65;100.00
38400;BME280;24180;42.676;23.320;2023-02-28T10:03:59;95297.88;;;9.69;100.00
38400;BME280;24180;42.676;23.320;2023-02-28T10:06:35;95310.00;;;10.10;100.00
38400;BME280;24180;42.676;23.320;2023-02-28T10:09:10;95308.03;;;10.44;100.00
38400;BME280;24180;42.676;23.320;2023-02-28T10:11:39;95284.00;;;10.62;100.00
38400;BME280;24180;42.676;23.320;2023-02-28T10:14:16;95298.84;;;11.10;100.00
38400;BME280;24180;42.676;23.320;2023-02-28T10:17:07;95317.72;;;11.41;100.00
38400;BME280;24180;42.676;23.320;2023-02-28T10:19:52;95326.19;;;11.52;100.00
38400;BME280;24180;42.676;23.320;2023-02-28T10:22:28;95323.78;;;11.99;100.00
38400;BME280;24180;42.676;23.320;2023-02-28T10:24:55;95315.72;;;11.92;100.00
38400;BME280;24180;42.676;23.320;2023-02-28T10:27:34;95296.59;;;11.93;100.00
38400;BME280;24180;42.676;23.320;2023-02-28T10:30:01;95306.66;;;12.25;100.00
38400;BME280;24180;42.676;23.320;2023-02-28T10:32:34;95318.19;;;12.59;100.00
38400;BME280;24180;42.676;23.320;2023-02-28T10:37:37;95302.25;;;12.82;100.00
38400;BME280;24180;42.676;23.320;2023-02-28T10:40:05;95296.63;;;13.04;100.00
38400;BME280;24180;42.676;23.320;2023-02-28T10:42:32;95279.19;;;13.41;100.00
38400;BME280;24180;42.676;23.320;2023-02-28T10:47:50;95273.78;;;13.88;100.00
38400;BME280;24180;42.676;23.320;2023-02-28T10:53:07;95275.94;;;15.70;100.00
38400;BME280;24180;42.676;23.320;2023-02-28T10:55:38;95260.34;;;15.28;100.00
38400;BME280;24180;42.676;23.320;2023-02-28T10:58:20;95275.84;;;15.29;100.00
38400;BME280;24180;42.676;23.320;2023-02-28T11:00:46;95266.41;;;16.58;100.00
38400;BME280;24180;42.676;23.320;2023-02-28T11:03:29;95275.31;;;17.26;100.00
38400;BME280;24180;42.676;23.320;2023-02-28T11:05:56;95256.31;;;18.23;100.00
38400;BME280;24180;42.676;23.320;2023-02-28T11:08:21;95250.69;;;18.93;100.00
38400;BME280;24180;42.676;23.320;2023-02-28T11:10:57;95227.34;;;20.19;92.79
38400;BME280;24180;42.676;23.320;2023-02-28T11:13:35;95259.22;;;19.31;96.68
38400;BME280;24180;42.676;23.320;2023-02-28T11:16:06;95256.97;;;18.40;100.00
38400;BME280;24180;42.676;23.320;2023-02-28T11:21:07;95205.41;;;18.18;100.00
38400;BME280;24180;42.676;23.320;2023-02-28T11:23:35;95241.03;;;18.12;99.28
38400;BME280;24180;42.676;23.320;2023-02-28T11:26:04;95234.72;;;17.53;100.00
38400;BME280;24180;42.676;23.320;2023-02-28T11:28:33;95249.44;;;17.62;100.00
38400;BME280;24180;42.676;23.320;2023-02-28T11:33:55;95257.38;;;16.84;100.00
38400;BME280;24180;42.676;23.320;2023-02-28T11:36:29;95234.94;;;16.19;100.00
38400;BME280;24180;42.676;23.320;2023-02-28T11:39:00;95214.81;;;15.14;100.00
38400;BME280;24180;42.676;23.320;2023-02-28T11:41:35;95243.97;;;15.10;100.00
38400;BME280;24180;42.676;23.320;2023-02-28T11:46:58;95176.19;;;14.26;100.00
38400;BME280;24180;42.676;23.320;2023-02-28T11:55:00;95236.91;;;14.44;100.00
38400;BME280;24180;42.676;23.320;2023-02-28T12:00:40;95234.44;;;14.42;100.00
38400;BME280;24180;42.676;23.320;2023-02-28T12:08:43;95231.25;;;14.31;100.00
38400;BME280;24180;42.676;23.320;2023-02-28T12:14:38;95240.34;;;14.27;100.00
38400;BME280;24180;42.676;23.320;2023-02-28T12:17:16;95238.47;;;14.37;100.00
38400;BME280;24180;42.676;23.320;2023-02-28T12:28:02;95228.13;;;13.58;100.00
38400;BME280;24180;42.676;23.320;2023-02-28T12:30:28;95211.19;;;13.54;100.00
38400;BME280;24180;42.676;23.320;2023-02-28T12:33:03;95205.22;;;13.62;100.00
38400;BME280;24180;42.676;23.320;2023-02-28T12:35:36;95183.66;;;13.69;100.00
38400;BME280;24180;42.676;23.320;2023-02-28T12:38:25;95233.66;;;13.98;100.00
38400;BME280;24180;42.676;23.320;2023-02-28T12:43:47;95192.75;;;13.91;100.00
38400;BME280;24180;42.676;23.320;2023-02-28T12:46:21;95197.78;;;13.67;100.00
38400;BME280;24180;42.676;23.320;2023-02-28T12:48:55;95224.75;;;13.83;100.00
38400;BME280;24180;42.676;23.320;2023-02-28T12:51:22;95223.66;;;13.68;100.00
38400;BME280;24180;42.676;23.320;2023-02-28T12:54:19;95197.31;;;13.28;100.00
38400;BME280;24180;42.676;23.320;2023-02-28T12:57:00;95221.28;;;13.57;100.00
38400;BME280;24180;42.676;23.320;2023-02-28T12:59:43;95185.94;;;13.29;100.00
38400;BME280;24180;42.676;23.320;2023-02-28T13:10:43;95220.50;;;13.39;100.00
38400;BME280;24180;42.676;23.320;2023-02-28T13:13:21;95186.13;;;13.53;100.00
38400;BME280;24180;42.676;23.320;2023-02-28T13:20:57;95213.47;;;13.75;100.00
38400;BME280;24180;42.676;23.320;2023-02-28T13:26:17;95209.16;;;13.66;100.00
38400;BME280;24180;42.676;23.320;2023-02-28T13:31:15;95192.84;;;13.38;100.00
38400;BME280;24180;42.676;23.320;2023-02-28T13:44:18;95200.00;;;12.91;100.00
38400;BME280;24180;42.676;23.320;2023-02-28T13:49:31;95205.13;;;13.00;100.00
38400;BME280;24180;42.676;23.320;2023-02-28T13:54:48;95189.44;;;13.20;100.00
38400;BME280;24180;42.676;23.320;2023-02-28T13:57:41;95163.03;;;12.79;100.00
38400;BME280;24180;42.676;23.320;2023-02-28T14:08:35;95158.78;;;12.96;100.00
38400;BME280;24180;42.676;23.320;2023-02-28T14:11:08;95192.94;;;12.83;100.00
38400;BME280;24180;42.676;23.320;2023-02-28T14:13:46;95205.84;;;12.75;100.00
38400;BME280;24180;42.676;23.320;2023-02-28T14:16:23;95180.66;;;12.58;100.00
38400;BME280;24180;42.676;23.320;2023-02-28T14:19:01;95202.19;;;12.68;100.00
38400;BME280;24180;42.676;23.320;2023-02-28T14:21:34;95164.09;;;12.32;100.00
38400;BME280;24180;42.676;23.320;2023-02-28T14:35:13;95211.41;;;12.26;100.00
38400;BME280;24180;42.676;23.320;2023-02-28T14:37:42;95206.00;;;12.09;100.00
38400;BME280;24180;42.676;23.320;2023-02-28T14:40:32;95206.06;;;11.90;100.00
38400;BME280;24180;42.676;23.320;2023-02-28T14:43:00;95169.75;;;11.71;100.00
38400;BME280;24180;42.676;23.320;2023-02-28T14:45:29;95207.03;;;11.80;100.00
38400;BME280;24180;42.676;23.320;2023-02-28T14:47:56;95204.84;;;11.85;100.00
38400;BME280;24180;42.676;23.320;2023-02-28T14:50:33;95205.25;;;11.61;100.00
38400;BME280;24180;42.676;23.320;2023-02-28T14:52:59;95207.06;;;11.51;100.00
38400;BME280;24180;42.676;23.320;2023-02-28T14:55:30;95184.25;;;11.16;100.00
38400;BME280;24180;42.676;23.320;2023-02-28T14:57:58;95215.38;;;11.25;100.00
38400;BME280;24180;42.676;23.320;2023-02-28T15:00:32;95199.53;;;11.00;100.00
38400;BME280;24180;42.676;23.320;2023-02-28T15:02:59;95191.09;;;10.98;100.00
38400;BME280;24180;42.676;23.320;2023-02-28T15:05:33;95186.03;;;11.06;100.00
38400;BME280;24180;42.676;23.320;2023-02-28T15:10:37;95178.53;;;11.12;100.00
38400;BME280;24180;42.676;23.320;2023-02-28T15:13:07;95194.09;;;11.12;100.00
38400;BME280;24180;42.676;23.320;2023-02-28T15:15:43;95195.84;;;11.12;100.00
38400;BME280;24180;42.676;23.320;2023-02-28T15:18:48;95197.91;;;11.08;100.00